createdAt,value
2023-04-06T00:00:03.950Z,12.50
2023-04-06T00:01:03.946Z,12.40
2023-04-06T00:02:03.980Z,12.70
2023-04-06T00:03:04.016Z,13.00
2023-04-06T00:04:03.946Z,14.10
2023-04-06T00:05:03.927Z,16.30
2023-04-06T00:06:03.928Z,20.90
2023-04-06T00:07:03.951Z,18.60
2023-04-06T00:08:03.899Z,18.10
2023-04-06T00:09:03.880Z,15.70
2023-04-06T00:10:03.884Z,16.30
2023-04-06T00:11:03.911Z,13.90
2023-04-06T00:12:03.915Z,14.10
2023-04-06T00:13:03.862Z,13.40
2023-04-06T00:14:03.854Z,15.10
2023-04-06T00:15:03.852Z,21.70
2023-04-06T00:16:03.878Z,23.90
2023-04-06T00:17:03.929Z,20.70
2023-04-06T00:18:03.884Z,15.80
2023-04-06T00:19:03.824Z,16.70
2023-04-06T00:20:03.808Z,13.50
2023-04-06T00:21:03.796Z,14.00
2023-04-06T00:22:03.857Z,15.00
2023-04-06T00:23:03.786Z,15.80
2023-04-06T00:24:03.777Z,15.00
2023-04-06T00:25:03.767Z,15.00
2023-04-06T00:26:04.762Z,15.20
2023-04-06T00:27:03.784Z,15.50
2023-04-06T00:28:03.755Z,17.90
2023-04-06T00:29:03.764Z,16.70
2023-04-06T00:30:03.756Z,15.20
2023-04-06T00:31:03.738Z,14.90
2023-04-06T00:32:03.790Z,14.30
2023-04-06T00:33:03.848Z,14.80
2023-04-06T00:34:03.716Z,15.00
2023-04-06T00:35:03.709Z,15.50
2023-04-06T00:36:03.715Z,13.50
2023-04-06T00:37:03.718Z,16.20
2023-04-06T00:38:03.705Z,12.70
2023-04-06T00:39:03.671Z,12.50
2023-04-06T00:40:03.677Z,12.70
2023-04-06T00:41:03.659Z,13.60
2023-04-06T00:42:03.670Z,13.00
2023-04-06T00:43:04.646Z,13.30
2023-04-06T00:44:03.638Z,12.50
2023-04-06T00:45:03.637Z,13.90
2023-04-06T00:46:03.661Z,12.90
2023-04-06T00:47:03.644Z,12.90
2023-04-06T00:48:03.612Z,12.60
2023-04-06T00:49:03.602Z,12.70
2023-04-06T00:50:03.590Z,12.00
2023-04-06T00:51:03.604Z,12.90
2023-04-06T00:52:03.606Z,12.80
2023-04-06T00:53:03.567Z,12.40
2023-04-06T00:54:03.569Z,13.80
2023-04-06T00:55:03.567Z,13.20
2023-04-06T00:56:03.550Z,13.20
2023-04-06T00:57:03.574Z,14.50
2023-04-06T00:58:03.535Z,11.90
2023-04-06T00:59:03.539Z,13.50
2023-04-06T01:00:03.556Z,14.30
2023-04-06T01:01:03.548Z,13.70
2023-04-06T01:02:03.534Z,13.00
2023-04-06T01:03:03.542Z,14.70
2023-04-06T01:04:03.508Z,13.10
2023-04-06T01:05:03.536Z,13.70
2023-04-06T01:06:03.480Z,12.30
2023-04-06T01:07:03.503Z,12.10
2023-04-06T01:08:03.470Z,13.00
2023-04-06T01:09:03.465Z,10.90
2023-04-06T01:10:03.480Z,15.30
2023-04-06T01:11:03.445Z,12.90
2023-04-06T01:12:03.455Z,12.50
2023-04-06T01:13:03.451Z,13.40
2023-04-06T01:14:03.423Z,13.00
2023-04-06T01:15:03.425Z,14.30
2023-04-06T01:16:03.421Z,14.20
2023-04-06T01:17:03.432Z,15.00
2023-04-06T01:18:03.482Z,14.30
2023-04-06T01:19:03.393Z,12.50
2023-04-06T01:20:03.386Z,12.80
2023-04-06T01:21:03.386Z,12.70
2023-04-06T01:22:03.402Z,13.90
2023-04-06T01:23:03.365Z,14.10
2023-04-06T01:24:03.359Z,13.30
2023-04-06T01:25:03.374Z,14.40
2023-04-06T01:26:03.341Z,15.50
2023-04-06T01:27:03.369Z,14.10
2023-04-06T01:28:03.333Z,14.50
2023-04-06T01:29:03.354Z,13.70
2023-04-06T01:30:03.341Z,14.30
2023-04-06T01:31:03.352Z,13.90
2023-04-06T01:32:03.363Z,14.40
2023-04-06T01:33:03.346Z,13.50
2023-04-06T01:34:03.298Z,14.20
2023-04-06T01:35:03.291Z,14.50
2023-04-06T01:36:03.304Z,15.40
2023-04-06T01:37:03.292Z,15.00
2023-04-06T01:38:03.339Z,14.30
2023-04-06T01:39:03.257Z,14.70
2023-04-06T01:40:03.249Z,15.90
2023-04-06T01:41:03.229Z,17.10
2023-04-06T01:42:03.250Z,14.20
2023-04-06T01:43:03.212Z,16.30
2023-04-06T01:44:03.219Z,15.30
2023-04-06T01:45:03.214Z,14.90
2023-04-06T01:46:03.213Z,15.20
2023-04-06T01:47:03.228Z,13.60
2023-04-06T01:48:03.203Z,13.90
2023-04-06T01:49:03.169Z,13.70
2023-04-06T01:50:03.176Z,15.60
2023-04-06T01:51:03.171Z,14.90
2023-04-06T01:52:03.186Z,14.60
2023-04-06T01:53:03.139Z,13.30
2023-04-06T01:54:03.135Z,13.10
2023-04-06T01:55:03.149Z,14.30
2023-04-06T01:56:03.125Z,15.10
2023-04-06T01:57:03.139Z,17.00
2023-04-06T01:58:03.101Z,13.80
2023-04-06T01:59:03.106Z,15.70
2023-04-06T02:00:03.106Z,15.70
2023-04-06T02:01:03.201Z,14.40
2023-04-06T02:02:03.166Z,15.90
2023-04-06T02:03:03.173Z,16.20
2023-04-06T02:04:03.069Z,14.80
2023-04-06T02:05:03.075Z,16.90
2023-04-06T02:06:03.045Z,17.00
2023-04-06T02:07:03.083Z,14.40
2023-04-06T02:08:03.029Z,16.90
2023-04-06T02:09:03.028Z,14.40
2023-04-06T02:10:03.018Z,16.50
2023-04-06T02:11:03.017Z,15.10
2023-04-06T02:12:03.042Z,14.80
2023-04-06T02:13:03.002Z,15.80
2023-04-06T02:14:02.996Z,16.10
2023-04-06T02:15:02.976Z,18.70
2023-04-06T02:16:03.012Z,18.10
2023-04-06T02:17:03.021Z,15.50
2023-04-06T02:18:03.014Z,17.30
2023-04-06T02:19:02.969Z,17.10
2023-04-06T02:20:02.974Z,16.80
2023-04-06T02:21:02.952Z,16.50
2023-04-06T02:22:02.933Z,16.80
2023-04-06T02:23:02.944Z,15.60
2023-04-06T02:24:02.918Z,16.30
2023-04-06T02:25:02.911Z,15.10
2023-04-06T02:26:02.901Z,16.70
2023-04-06T02:27:02.902Z,14.50
2023-04-06T02:28:02.943Z,17.30
2023-04-06T02:29:02.884Z,17.10
2023-04-06T02:30:02.891Z,16.50
2023-04-06T02:31:02.871Z,17.30
2023-04-06T02:32:02.873Z,17.30
2023-04-06T02:33:02.982Z,16.80
2023-04-06T02:34:02.848Z,16.40
2023-04-06T02:35:02.844Z,18.30
2023-04-06T02:36:02.857Z,16.60
2023-04-06T02:37:02.824Z,17.60
2023-04-06T02:38:02.843Z,17.60
2023-04-06T02:39:02.808Z,15.20
2023-04-06T02:40:02.814Z,15.70
2023-04-06T02:41:02.801Z,16.80
2023-04-06T02:42:02.786Z,16.10
2023-04-06T02:43:02.808Z,15.50
2023-04-06T02:44:02.768Z,17.90
2023-04-06T02:45:02.773Z,16.60
2023-04-06T02:46:02.872Z,17.70
2023-04-06T02:47:02.760Z,16.70
2023-04-06T02:48:02.788Z,16.60
2023-04-06T02:49:02.765Z,17.00
2023-04-06T02:50:02.735Z,16.90
2023-04-06T02:51:02.728Z,17.70
2023-04-06T02:52:02.719Z,16.40
2023-04-06T02:53:02.737Z,15.20
2023-04-06T02:54:02.710Z,16.00
2023-04-06T02:55:02.720Z,17.70
2023-04-06T02:56:02.727Z,16.10
2023-04-06T02:57:02.694Z,16.30
2023-04-06T02:58:02.718Z,16.90
2023-04-06T02:59:02.743Z,15.60
2023-04-06T03:00:02.669Z,16.50
2023-04-06T03:01:02.743Z,16.60
2023-04-06T03:02:02.655Z,16.70
2023-04-06T03:03:02.749Z,18.50
2023-04-06T03:04:02.640Z,19.80
2023-04-06T03:05:02.670Z,21.20
2023-04-06T03:06:02.622Z,19.90
2023-04-06T03:07:02.610Z,18.70
2023-04-06T03:08:02.648Z,17.00
2023-04-06T03:09:02.605Z,22.10
2023-04-06T03:10:02.641Z,20.40
2023-04-06T03:11:03.620Z,17.60
2023-04-06T03:12:02.579Z,18.50
2023-04-06T03:13:02.603Z,18.50
2023-04-06T03:14:03.570Z,19.40
2023-04-06T03:15:02.578Z,17.80
2023-04-06T03:16:02.656Z,18.60
2023-04-06T03:17:02.548Z,16.60
2023-04-06T03:18:02.599Z,17.20
2023-04-06T03:19:02.525Z,17.90
2023-04-06T03:20:02.542Z,17.30
2023-04-06T03:21:02.529Z,16.10
2023-04-06T03:22:02.524Z,20.70
2023-04-06T03:23:02.537Z,20.40
2023-04-06T03:24:02.500Z,17.50
2023-04-06T03:25:03.726Z,17.00
2023-04-06T03:26:03.474Z,17.40
2023-04-06T03:27:02.509Z,17.90
2023-04-06T03:28:02.497Z,14.80
2023-04-06T03:29:02.464Z,16.90
2023-04-06T03:30:02.440Z,15.00
2023-04-06T03:31:02.500Z,16.90
2023-04-06T03:32:02.428Z,16.30
2023-04-06T03:33:02.478Z,16.80
2023-04-06T03:34:02.430Z,15.50
2023-04-06T03:35:02.413Z,18.50
2023-04-06T03:36:02.451Z,16.90
2023-04-06T03:37:09.755Z,19.10
2023-04-06T03:38:04.417Z,17.00
2023-04-06T03:39:02.391Z,16.50
2023-04-06T03:40:02.375Z,17.50
2023-04-06T03:41:02.365Z,17.20
2023-04-06T03:42:02.360Z,18.30
2023-04-06T03:43:02.383Z,17.80
2023-04-06T03:44:02.357Z,21.10
2023-04-06T03:45:02.346Z,20.50
2023-04-06T03:46:02.405Z,18.70
2023-04-06T03:47:02.316Z,20.80
2023-04-06T03:48:02.393Z,19.90
2023-04-06T03:49:02.312Z,19.60
2023-04-06T03:50:02.297Z,19.20
2023-04-06T03:51:02.292Z,19.20
2023-04-06T03:52:02.303Z,19.20
2023-04-06T03:53:02.311Z,18.60
2023-04-06T03:54:02.270Z,18.50
2023-04-06T03:55:02.265Z,18.30
2023-04-06T03:56:04.624Z,19.00
2023-04-06T03:57:03.249Z,18.30
2023-04-06T03:58:02.280Z,18.00
2023-04-06T03:59:02.278Z,20.50
2023-04-06T04:00:02.241Z,17.00
2023-04-06T04:01:02.214Z,16.80
2023-04-06T04:02:02.332Z,16.20
2023-04-06T04:03:02.289Z,16.30
2023-04-06T04:04:02.217Z,16.50
2023-04-06T04:05:02.245Z,17.20
2023-04-06T04:06:02.187Z,18.70
2023-04-06T04:07:02.173Z,17.30
2023-04-06T04:08:02.229Z,16.10
2023-04-06T04:09:02.157Z,16.80
2023-04-06T04:10:02.154Z,16.40
2023-04-06T04:11:02.154Z,15.90
2023-04-06T04:12:02.142Z,15.10
2023-04-06T04:13:02.155Z,16.00
2023-04-06T04:14:02.129Z,16.40
2023-04-06T04:15:02.125Z,14.70
2023-04-06T04:16:02.131Z,15.50
2023-04-06T04:17:02.115Z,16.40
2023-04-06T04:18:02.181Z,16.70
2023-04-06T04:19:02.089Z,18.10
2023-04-06T04:20:02.090Z,16.50
2023-04-06T04:21:02.078Z,16.50
2023-04-06T04:22:02.061Z,16.40
2023-04-06T04:23:02.083Z,16.80
2023-04-06T04:24:02.051Z,16.40
2023-04-06T04:25:02.054Z,17.20
2023-04-06T04:26:02.036Z,19.00
2023-04-06T04:27:02.080Z,18.00
2023-04-06T04:28:02.073Z,17.70
2023-04-06T04:29:02.022Z,18.30
2023-04-06T04:30:02.009Z,17.90
2023-04-06T04:31:02.010Z,19.00
2023-04-06T04:32:02.023Z,19.30
2023-04-06T04:33:02.025Z,20.50
2023-04-06T04:34:02.000Z,19.40
2023-04-06T04:35:01.981Z,17.00
2023-04-06T04:36:02.020Z,17.30
2023-04-06T04:37:01.976Z,18.20
2023-04-06T04:38:02.006Z,20.70
2023-04-06T04:39:01.948Z,19.90
2023-04-06T04:40:01.951Z,18.80
2023-04-06T04:41:01.940Z,17.10
2023-04-06T04:42:01.947Z,18.40
2023-04-06T04:43:33.873Z,18.50
2023-04-06T04:44:01.924Z,17.60
2023-04-06T04:45:01.911Z,18.40
2023-04-06T04:46:01.973Z,16.90
2023-04-06T04:47:01.892Z,17.70
2023-04-06T04:48:02.037Z,17.30
2023-04-06T04:49:01.898Z,18.00
2023-04-06T04:50:01.901Z,17.50
2023-04-06T04:51:01.882Z,18.30
2023-04-06T04:52:01.867Z,18.90
2023-04-06T04:53:01.932Z,19.00
2023-04-06T04:54:01.867Z,21.40
2023-04-06T04:55:01.840Z,17.40
2023-04-06T04:56:01.831Z,18.50
2023-04-06T04:57:01.829Z,19.50
2023-04-06T04:58:01.851Z,21.10
2023-04-06T04:59:01.878Z,22.20
2023-04-06T05:00:01.816Z,21.60
2023-04-06T05:01:01.863Z,20.10
2023-04-06T05:02:01.916Z,22.10
2023-04-06T05:03:01.875Z,24.80
2023-04-06T05:04:01.777Z,22.70
2023-04-06T05:05:01.805Z,21.50
2023-04-06T05:06:01.764Z,21.80
2023-04-06T05:07:01.762Z,23.20
2023-04-06T05:08:01.780Z,23.80
2023-04-06T05:09:01.740Z,21.50
2023-04-06T05:10:01.737Z,19.00
2023-04-06T05:11:01.730Z,19.00
2023-04-06T05:12:01.728Z,19.90
2023-04-06T05:13:01.774Z,18.20
2023-04-06T05:14:01.889Z,18.30
2023-04-06T05:15:01.702Z,18.70
2023-04-06T05:16:01.765Z,19.10
2023-04-06T05:17:01.703Z,20.50
2023-04-06T05:18:01.762Z,20.10
2023-04-06T05:19:01.678Z,21.10
2023-04-06T05:20:01.685Z,20.50
2023-04-06T05:21:01.670Z,19.90
2023-04-06T05:22:01.699Z,19.40
2023-04-06T05:23:01.674Z,20.70
2023-04-06T05:24:01.688Z,21.00
2023-04-06T05:25:01.632Z,22.00
2023-04-06T05:26:01.627Z,20.70
2023-04-06T05:27:01.609Z,21.50
2023-04-06T05:28:01.642Z,21.20
2023-04-06T05:29:01.612Z,20.50
2023-04-06T05:30:01.605Z,22.10
2023-04-06T05:31:01.622Z,21.40
2023-04-06T05:32:01.586Z,20.00
2023-04-06T05:33:01.680Z,21.10
2023-04-06T05:34:01.580Z,21.40
2023-04-06T05:35:01.564Z,22.60
2023-04-06T05:36:01.653Z,22.00
2023-04-06T05:37:01.539Z,21.40
2023-04-06T05:38:01.627Z,19.80
2023-04-06T05:39:01.549Z,22.00
2023-04-06T05:40:01.531Z,18.90
2023-04-06T05:41:01.507Z,19.10
2023-04-06T05:42:01.509Z,18.70
2023-04-06T05:43:01.526Z,17.80
2023-04-06T05:44:01.488Z,19.00
2023-04-06T05:45:01.486Z,18.50
2023-04-06T05:46:01.535Z,17.70
2023-04-06T05:47:01.500Z,20.60
2023-04-06T05:48:01.515Z,19.00
2023-04-06T05:49:01.518Z,20.20
2023-04-06T05:50:01.448Z,17.50
2023-04-06T05:51:01.424Z,19.10
2023-04-06T05:52:02.492Z,16.80
2023-04-06T05:53:01.416Z,17.70
2023-04-06T05:54:01.433Z,18.20
2023-04-06T05:55:01.433Z,17.60
2023-04-06T05:56:01.384Z,18.60
2023-04-06T05:57:01.431Z,17.60
2023-04-06T05:58:01.397Z,17.20
2023-04-06T05:59:01.509Z,17.10
2023-04-06T06:00:01.354Z,17.60
2023-04-06T06:01:01.366Z,20.70
2023-04-06T06:02:01.370Z,19.70
2023-04-06T06:03:01.527Z,19.30
2023-04-06T06:04:01.357Z,17.90
2023-04-06T06:05:01.385Z,18.00
2023-04-06T06:06:01.324Z,18.40
2023-04-06T06:07:01.305Z,16.90
2023-04-06T06:08:01.299Z,18.80
2023-04-06T06:09:01.328Z,20.80
2023-04-06T06:10:01.298Z,21.90
2023-04-06T06:11:01.271Z,20.00
2023-04-06T06:12:01.263Z,19.80
2023-04-06T06:13:01.262Z,18.90
2023-04-06T06:14:01.301Z,20.20
2023-04-06T06:15:01.251Z,21.10
2023-04-06T06:16:01.248Z,20.60
2023-04-06T06:17:01.228Z,21.10
2023-04-06T06:18:01.381Z,20.40
2023-04-06T06:19:01.302Z,19.90
2023-04-06T06:20:01.232Z,19.80
2023-04-06T06:21:01.206Z,20.20
2023-04-06T06:22:01.199Z,20.90
2023-04-06T06:23:01.217Z,18.60
2023-04-06T06:24:01.207Z,20.10
2023-04-06T06:25:01.167Z,20.20
2023-04-06T06:26:01.156Z,19.20
2023-04-06T06:27:01.187Z,18.30
2023-04-06T06:28:01.143Z,18.50
2023-04-06T06:29:01.254Z,20.20
2023-04-06T06:30:01.131Z,18.90
2023-04-06T06:31:01.136Z,20.60
2023-04-06T06:32:01.287Z,19.20
2023-04-06T06:33:01.178Z,22.40
2023-04-06T06:34:01.162Z,21.50
2023-04-06T06:35:01.199Z,21.50
2023-04-06T06:36:01.140Z,20.50
2023-04-06T06:37:01.090Z,21.90
2023-04-06T06:38:01.090Z,23.40
2023-04-06T06:39:01.091Z,23.80
2023-04-06T06:40:01.052Z,24.40
2023-04-06T06:41:01.080Z,21.80
2023-04-06T06:42:01.039Z,22.30
2023-04-06T06:43:01.041Z,21.50
2023-04-06T06:44:01.278Z,23.10
2023-04-06T06:45:01.009Z,23.90
2023-04-06T06:46:01.034Z,27.10
2023-04-06T06:47:01.013Z,29.70
2023-04-06T06:48:01.050Z,26.90
2023-04-06T06:49:01.014Z,28.20
2023-04-06T06:50:01.026Z,28.20
2023-04-06T06:51:00.992Z,25.30
2023-04-06T06:52:01.003Z,27.70
2023-04-06T06:53:00.967Z,26.80
2023-04-06T06:54:00.979Z,25.60
2023-04-06T06:55:01.063Z,28.30
2023-04-06T06:56:00.958Z,26.50
2023-04-06T06:57:00.928Z,24.70
2023-04-06T06:58:01.209Z,25.30
2023-04-06T06:59:00.962Z,27.10
2023-04-06T07:00:01.023Z,27.30
2023-04-06T07:01:01.071Z,29.80
2023-04-06T07:02:00.916Z,28.50
2023-04-06T07:03:01.016Z,26.30
2023-04-06T07:04:01.000Z,29.90
2023-04-06T07:05:00.941Z,28.00
2023-04-06T07:06:00.882Z,27.10
2023-04-06T07:07:00.883Z,28.60
2023-04-06T07:08:01.018Z,29.50
2023-04-06T07:09:00.860Z,29.80
2023-04-06T07:10:00.868Z,29.80
2023-04-06T07:11:00.834Z,29.80
2023-04-06T07:12:00.893Z,29.50
2023-04-06T07:13:00.821Z,30.70
2023-04-06T07:14:00.808Z,28.00
2023-04-06T07:15:00.825Z,28.50
2023-04-06T07:16:00.820Z,27.10
2023-04-06T07:17:00.842Z,27.60
2023-04-06T07:18:00.816Z,30.00
2023-04-06T07:19:00.986Z,27.00
2023-04-06T07:20:00.789Z,27.80
2023-04-06T07:21:00.816Z,27.50
2023-04-06T07:22:00.741Z,26.40
2023-04-06T07:23:00.828Z,27.20
2023-04-06T07:24:00.744Z,26.00
2023-04-06T07:25:00.767Z,26.20
2023-04-06T07:26:00.731Z,26.60
2023-04-06T07:27:00.753Z,25.80
2023-04-06T07:28:00.704Z,28.70
2023-04-06T07:29:00.680Z,27.70
2023-04-06T07:30:00.841Z,25.10
2023-04-06T07:31:00.672Z,25.70
2023-04-06T07:32:00.675Z,27.00
2023-04-06T07:33:00.748Z,27.70
2023-04-06T07:34:00.658Z,28.20
2023-04-06T07:35:00.721Z,28.70
2023-04-06T07:36:00.685Z,28.30
2023-04-06T07:37:01.801Z,29.00
2023-04-06T07:38:00.616Z,28.00
2023-04-06T07:39:00.618Z,27.60
2023-04-06T07:40:00.647Z,26.10
2023-04-06T07:41:00.601Z,27.50
2023-04-06T07:42:00.617Z,25.60
2023-04-06T07:43:00.587Z,28.60
2023-04-06T07:44:00.678Z,29.40
2023-04-06T07:45:00.604Z,27.80
2023-04-06T07:46:00.608Z,38.40
2023-04-06T07:47:00.549Z,32.60
2023-04-06T07:48:00.605Z,26.80
2023-04-06T07:49:00.541Z,27.70
2023-04-06T07:50:00.563Z,28.90
2023-04-06T07:51:00.525Z,29.80
2023-04-06T07:52:00.575Z,26.70
2023-04-06T07:53:00.508Z,26.10
2023-04-06T07:54:00.503Z,26.70
2023-04-06T07:55:00.522Z,27.70
2023-04-06T07:56:00.488Z,27.90
2023-04-06T07:57:00.478Z,25.10
2023-04-06T07:58:00.490Z,26.50
2023-04-06T07:59:00.505Z,26.40
2023-04-06T08:00:00.506Z,26.20
2023-04-06T08:01:00.451Z,25.00
2023-04-06T08:02:00.467Z,27.80
2023-04-06T08:03:00.524Z,26.80
2023-04-06T08:04:00.598Z,25.40
2023-04-06T08:05:21.120Z,25.70
2023-04-06T08:06:01.417Z,26.10
2023-04-06T08:07:00.434Z,27.80
2023-04-06T08:08:00.410Z,27.50
2023-04-06T08:09:00.396Z,25.60
2023-04-06T08:10:00.428Z,28.20
2023-04-06T08:11:02.009Z,25.90
2023-04-06T08:12:01.471Z,26.20
2023-04-06T08:13:00.372Z,26.20
2023-04-06T08:14:00.356Z,25.40
2023-04-06T08:15:00.379Z,24.80
2023-04-06T08:16:00.370Z,23.00
2023-04-06T08:17:00.326Z,23.00
2023-04-06T08:18:00.357Z,23.60
2023-04-06T08:19:00.317Z,24.80
2023-04-06T08:20:00.326Z,25.90
2023-04-06T08:21:00.353Z,24.80
2023-04-06T08:22:00.297Z,23.10
2023-04-06T08:23:00.276Z,22.70
2023-04-06T08:24:00.270Z,23.50
2023-04-06T08:25:00.288Z,25.50
2023-04-06T08:26:00.257Z,23.10
2023-04-06T08:27:00.240Z,22.30
2023-04-06T08:28:00.322Z,22.30
2023-04-06T08:29:00.276Z,21.90
2023-04-06T08:30:00.275Z,21.30
2023-04-06T08:31:00.239Z,22.70
2023-04-06T08:32:00.212Z,20.80
2023-04-06T08:33:00.329Z,22.30
2023-04-06T08:34:00.198Z,22.40
2023-04-06T08:35:00.215Z,21.60
2023-04-06T08:36:00.200Z,21.60
2023-04-06T08:37:00.170Z,23.00
2023-04-06T08:38:00.278Z,21.40
2023-04-06T08:39:00.168Z,20.80
2023-04-06T08:40:00.209Z,21.50
2023-04-06T08:41:00.169Z,22.80
2023-04-06T08:42:00.144Z,21.50
2023-04-06T08:43:00.182Z,21.00
2023-04-06T08:44:00.116Z,19.70
2023-04-06T08:45:00.182Z,22.50
2023-04-06T08:46:00.164Z,20.30
2023-04-06T08:47:00.116Z,20.90
2023-04-06T08:48:00.258Z,20.70
2023-04-06T08:49:00.097Z,20.70
2023-04-06T08:50:00.195Z,20.40
2023-04-06T08:51:00.090Z,20.80
2023-04-06T08:52:00.123Z,23.10
2023-04-06T08:53:00.068Z,23.20
2023-04-06T08:54:00.102Z,19.80
2023-04-06T08:55:00.062Z,18.50
2023-04-06T08:56:00.715Z,18.00
2023-04-06T08:57:00.024Z,17.50
2023-04-06T08:58:00.019Z,17.80
2023-04-06T08:59:00.063Z,18.20
2023-04-06T08:59:59.998Z,16.80
2023-04-06T09:01:00.025Z,18.50
2023-04-06T09:02:00.003Z,18.90
2023-04-06T09:03:00.147Z,16.60
2023-04-06T09:04:00.093Z,17.00
2023-04-06T09:05:00.020Z,17.60
2023-04-06T09:06:00.030Z,17.00
2023-04-06T09:06:59.973Z,16.20
2023-04-06T09:08:00.934Z,16.90
2023-04-06T09:08:59.931Z,16.70
2023-04-06T09:09:59.929Z,16.40
2023-04-06T09:10:59.941Z,17.70
2023-04-06T09:11:59.904Z,16.90
2023-04-06T09:12:59.903Z,14.80
2023-04-06T09:13:59.900Z,15.50
2023-04-06T09:14:59.917Z,16.60
2023-04-06T09:15:59.952Z,16.10
2023-04-06T09:16:59.880Z,15.50
2023-04-06T09:17:59.942Z,16.70
2023-04-06T09:18:59.851Z,16.60
2023-04-06T09:19:59.909Z,17.20
2023-04-06T09:20:59.866Z,16.60
2023-04-06T09:21:59.832Z,17.10
2023-04-06T09:22:59.863Z,15.60
2023-04-06T09:23:59.988Z,17.50
2023-04-06T09:24:59.812Z,17.20
2023-04-06T09:25:59.837Z,16.40
2023-04-06T09:26:59.835Z,15.00
2023-04-06T09:27:59.787Z,15.50
2023-04-06T09:28:59.772Z,18.50
2023-04-06T09:30:00.771Z,16.10
2023-04-06T09:30:59.802Z,15.90
2023-04-06T09:31:59.868Z,15.30
2023-04-06T09:32:59.818Z,15.80
2023-04-06T09:33:59.768Z,17.30
2023-04-06T09:34:59.740Z,15.20
2023-04-06T09:35:59.804Z,16.70
2023-04-06T09:36:59.725Z,16.00
2023-04-06T09:37:59.727Z,15.90
2023-04-06T09:38:59.702Z,17.70
2023-04-06T09:39:59.707Z,16.60
2023-04-06T09:41:01.226Z,15.70
2023-04-06T09:42:00.757Z,15.00
2023-04-06T09:42:59.719Z,16.00
2023-04-06T09:43:59.664Z,16.50
2023-04-06T09:44:59.666Z,15.70
2023-04-06T09:45:59.720Z,15.30
2023-04-06T09:47:01.146Z,16.60
2023-04-06T09:48:00.772Z,16.30
2023-04-06T09:48:59.629Z,14.90
2023-04-06T09:49:59.634Z,17.90
2023-04-06T09:50:59.639Z,15.00
2023-04-06T09:51:59.619Z,13.40
2023-04-06T09:52:59.602Z,15.10
2023-04-06T09:53:59.597Z,14.90
2023-04-06T09:54:59.581Z,15.00
2023-04-06T09:55:59.601Z,14.20
2023-04-06T09:56:59.620Z,14.60
2023-04-06T09:57:59.597Z,14.80
2023-04-06T09:58:59.584Z,13.70
2023-04-06T09:59:59.546Z,14.40
2023-04-06T10:00:59.697Z,15.50
2023-04-06T10:01:59.527Z,14.50
2023-04-06T10:02:59.573Z,14.10
2023-04-06T10:03:59.718Z,16.00
2023-04-06T10:04:59.514Z,15.30
2023-04-06T10:05:59.607Z,14.70
2023-04-06T10:06:59.492Z,14.80
2023-04-06T10:08:01.129Z,16.60
2023-04-06T10:09:00.485Z,14.90
2023-04-06T10:09:59.503Z,15.80
2023-04-06T10:10:59.484Z,16.60
2023-04-06T10:11:59.447Z,15.10
2023-04-06T10:12:59.434Z,16.00
2023-04-06T10:14:00.442Z,14.20
2023-04-06T10:14:59.419Z,14.10
2023-04-06T10:15:59.503Z,15.10
2023-04-06T10:16:59.410Z,13.40
2023-04-06T10:17:59.420Z,16.70
2023-04-06T10:18:59.385Z,15.10
2023-04-06T10:19:59.384Z,13.90
2023-04-06T10:20:59.377Z,15.20
2023-04-06T10:21:59.399Z,13.40
2023-04-06T10:22:59.360Z,14.20
2023-04-06T10:23:59.354Z,14.80
2023-04-06T10:24:59.351Z,14.60
2023-04-06T10:25:59.333Z,14.00
2023-04-06T10:26:59.348Z,13.40
2023-04-06T10:27:59.323Z,14.90
2023-04-06T10:28:59.329Z,13.50
2023-04-06T10:29:59.314Z,14.50
2023-04-06T10:30:59.321Z,15.00
2023-04-06T10:31:59.376Z,14.80
2023-04-06T10:32:59.476Z,17.80
2023-04-06T10:33:59.280Z,14.20
2023-04-06T10:34:59.282Z,14.80
2023-04-06T10:35:59.334Z,14.30
2023-04-06T10:36:59.286Z,14.80
2023-04-06T10:37:59.245Z,17.00
2023-04-06T10:38:59.373Z,13.80
2023-04-06T10:39:59.276Z,14.80
2023-04-06T10:40:59.229Z,14.70
2023-04-06T10:41:59.259Z,14.20
2023-04-06T10:43:31.678Z,15.00
2023-04-06T10:43:59.209Z,13.60
2023-04-06T10:44:59.197Z,15.00
2023-04-06T10:45:59.270Z,15.20
2023-04-06T10:46:59.302Z,14.60
2023-04-06T10:47:59.250Z,15.80
2023-04-06T10:48:59.170Z,14.60
2023-04-06T10:49:59.160Z,15.50
2023-04-06T10:50:59.155Z,15.50
2023-04-06T10:51:59.341Z,15.50
2023-04-06T10:52:59.135Z,16.10
2023-04-06T10:53:59.125Z,14.60
2023-04-06T10:54:59.142Z,14.90
2023-04-06T10:55:59.117Z,14.40
2023-04-06T10:56:59.132Z,15.20
2023-04-06T10:57:59.099Z,14.30
2023-04-06T10:58:59.125Z,15.10
2023-04-06T10:59:59.088Z,14.90
2023-04-06T11:00:59.108Z,15.70
2023-04-06T11:01:59.094Z,15.10
2023-04-06T11:02:59.083Z,15.00
2023-04-06T11:03:59.148Z,14.20
2023-04-06T11:04:59.061Z,13.70
2023-04-06T11:05:59.027Z,13.70
2023-04-06T11:06:59.063Z,14.00
2023-04-06T11:07:59.024Z,14.20
2023-04-06T11:08:59.005Z,13.30
2023-04-06T11:10:14.007Z,15.60
2023-04-06T11:11:01.014Z,14.10
2023-04-06T11:11:59.055Z,14.00
2023-04-06T11:12:58.980Z,14.10
2023-04-06T11:13:58.966Z,13.40
2023-04-06T11:14:58.966Z,13.90
2023-04-06T11:15:58.951Z,14.40
2023-04-06T11:16:59.057Z,13.50
2023-04-06T11:17:59.014Z,13.90
2023-04-06T11:18:58.939Z,13.00
2023-04-06T11:19:58.923Z,15.40
2023-04-06T11:20:58.918Z,15.10
2023-04-06T11:21:59.928Z,13.70
2023-04-06T11:22:59.910Z,14.40
2023-04-06T11:23:58.898Z,14.60
2023-04-06T11:24:58.886Z,13.00
2023-04-06T11:25:58.885Z,12.60
2023-04-06T11:26:58.933Z,13.10
2023-04-06T11:27:58.885Z,14.20
2023-04-06T11:28:58.856Z,15.80
2023-04-06T11:29:58.864Z,13.80
2023-04-06T11:30:59.979Z,12.40
2023-04-06T11:31:58.837Z,13.30
2023-04-06T11:32:58.874Z,12.80
2023-04-06T11:33:58.821Z,14.30
2023-04-06T11:34:58.805Z,12.90
2023-04-06T11:35:58.873Z,13.90
2023-04-06T11:36:58.799Z,13.80
2023-04-06T11:38:00.456Z,13.10
2023-04-06T11:38:59.783Z,13.70
2023-04-06T11:39:58.798Z,13.80
2023-04-06T11:40:58.756Z,14.00
2023-04-06T11:41:58.751Z,13.50
2023-04-06T11:42:58.775Z,15.10
2023-04-06T11:43:58.741Z,12.90
2023-04-06T11:44:58.733Z,13.40
2023-04-06T11:45:58.729Z,14.40
2023-04-06T11:46:58.710Z,13.50
2023-04-06T11:47:58.769Z,13.40
2023-04-06T11:48:58.771Z,13.70
2023-04-06T11:49:58.693Z,14.00
2023-04-06T11:50:58.690Z,14.20
2023-04-06T11:51:58.717Z,13.60
2023-04-06T11:52:58.688Z,14.90
2023-04-06T11:53:59.730Z,13.00
2023-04-06T11:54:58.666Z,14.20
2023-04-06T11:55:58.673Z,13.40
2023-04-06T11:56:58.673Z,14.60
2023-04-06T11:57:58.636Z,13.30
2023-04-06T11:58:58.732Z,12.50
2023-04-06T11:59:58.619Z,13.00
2023-04-06T12:00:58.608Z,13.20
2023-04-06T12:01:58.611Z,12.30
2023-04-06T12:02:58.660Z,12.80
2023-04-06T12:03:58.668Z,12.50
2023-04-06T12:04:58.592Z,13.00
2023-04-06T12:05:59.437Z,11.40
2023-04-06T12:06:59.558Z,12.30
2023-04-06T12:08:00.126Z,12.90
2023-04-06T12:08:58.616Z,11.10
2023-04-06T12:09:58.537Z,11.80
2023-04-06T12:10:58.534Z,13.60
2023-04-06T12:11:58.512Z,11.50
2023-04-06T12:12:58.508Z,12.70
2023-04-06T12:13:58.533Z,12.20
2023-04-06T12:14:58.491Z,12.00
2023-04-06T12:15:58.543Z,12.70
2023-04-06T12:16:58.484Z,12.10
2023-04-06T12:17:58.496Z,12.70
2023-04-06T12:18:58.554Z,14.90
2023-04-06T12:20:05.149Z,12.00
2023-04-06T12:21:00.445Z,12.60
2023-04-06T12:21:58.453Z,14.30
2023-04-06T12:22:58.565Z,11.60
2023-04-06T12:23:58.453Z,13.10
2023-04-06T12:24:58.422Z,12.60
2023-04-06T12:25:58.409Z,12.30
2023-04-06T12:27:08.698Z,12.30
2023-04-06T12:28:00.400Z,12.00
2023-04-06T12:28:58.432Z,12.10
2023-04-06T12:29:58.380Z,10.30
2023-04-06T12:30:58.389Z,11.20
2023-04-06T12:31:58.466Z,10.50
2023-04-06T12:32:58.439Z,11.50
2023-04-06T12:33:58.381Z,11.50
2023-04-06T12:34:58.343Z,13.10
2023-04-06T12:35:58.381Z,12.00
2023-04-06T12:36:58.458Z,12.40
2023-04-06T12:37:58.318Z,13.00
2023-04-06T12:38:58.340Z,13.60
2023-04-06T12:39:58.307Z,13.00
2023-04-06T12:40:58.292Z,10.90
2023-04-06T12:41:58.296Z,12.50
2023-04-06T12:42:58.281Z,12.10
2023-04-06T12:43:58.303Z,12.30
2023-04-06T12:44:58.269Z,11.40
2023-04-06T12:45:58.267Z,12.80
2023-04-06T12:46:58.299Z,11.30
2023-04-06T12:47:58.288Z,11.70
2023-04-06T12:48:58.257Z,12.70
2023-04-06T12:49:58.229Z,11.40
2023-04-06T12:50:58.225Z,11.90
2023-04-06T12:51:58.210Z,12.50